sensor_id;sensor_type;location;lat;lon;timestamp;temperature;humidity
19224;DHT22;9746;47.180;9.776;2023-05-02T10:47:21;15.20;99.90
19224;DHT22;9746;47.180;9.776;2023-05-02T10:49:50;15.40;99.90
19224;DHT22;9746;47.180;9.776;2023-05-02T10:52:29;15.70;99.90
19224;DHT22;9746;47.180;9.776;2023-05-02T10:55:14;16.00;99.90
19224;DHT22;9746;47.180;9.776;2023-05-02T11:01:31;16.70;99.90
19224;DHT22;9746;47.180;9.776;2023-05-02T11:04:03;17.20;99.90
19224;DHT22;9746;47.180;9.776;2023-05-02T11:06:36;17.70;99.90
19224;DHT22;9746;47.180;9.776;2023-05-02T11:09:31;17.90;99.90
19224;DHT22;9746;47.180;9.776;2023-05-02T11:12:05;18.30;99.90
19224;DHT22;9746;47.180;9.776;2023-05-02T11:14:46;18.70;99.90
19224;DHT22;9746;47.180;9.776;2023-05-02T11:17:18;18.80;99.90
19224;DHT22;9746;47.180;9.776;2023-05-02T11:22:56;18.50;99.90
19224;DHT22;9746;47.180;9.776;2023-05-02T11:25:35;18.30;99.90
19224;DHT22;9746;47.180;9.776;2023-05-02T11:28:43;18.20;99.90
19224;DHT22;9746;47.180;9.776;2023-05-02T11:34:28;17.90;99.90
19224;DHT22;9746;47.180;9.776;2023-05-02T11:39:50;17.50;99.90
19224;DHT22;9746;47.180;9.776;2023-05-02T11:42:49;17.10;99.90
19224;DHT22;9746;47.180;9.776;2023-05-02T11:45:17;16.90;99.90
19224;DHT22;9746;47.180;9.776;2023-05-02T11:47:51;16.80;99.90
19224;DHT22;9746;47.180;9.776;2023-05-02T11:50:19;16.70;99.90
19224;DHT22;9746;47.180;9.776;2023-05-02T11:52:50;16.50;99.90
19224;DHT22;9746;47.180;9.776;2023-05-02T11:55:18;16.30;99.90
19224;DHT22;9746;47.180;9.776;2023-05-02T11:58:04;16.10;99.90
19224;DHT22;9746;47.180;9.776;2023-05-02T12:00:38;16.00;99.90
19224;DHT22;9746;47.180;9.776;2023-05-02T12:03:29;15.80;99.90
19224;DHT22;9746;47.180;9.776;2023-05-02T12:06:07;15.70;99.90
19224;DHT22;9746;47.180;9.776;2023-05-02T12:08:43;15.50;99.90
19224;DHT22;9746;47.180;9.776;2023-05-02T12:11:14;15.40;99.90
19224;DHT22;9746;47.180;9.776;2023-05-02T12:13:47;15.20;99.90
19224;DHT22;9746;47.180;9.776;2023-05-02T12:16:16;15.10;99.90
19224;DHT22;9746;47.180;9.776;2023-05-02T12:18:53;15.00;99.90
19224;DHT22;9746;47.180;9.776;2023-05-02T12:21:25;15.00;99.90
19224;DHT22;9746;47.180;9.776;2023-05-02T12:24:16;15.00;99.90
19224;DHT22;9746;47.180;9.776;2023-05-02T12:26:46;15.20;99.90
19224;DHT22;9746;47.180;9.776;2023-05-02T12:29:13;15.40;99.90
19224;DHT22;9746;47.180;9.776;2023-05-02T12:31:50;15.60;99.90
19224;DHT22;9746;47.180;9.776;2023-05-02T12:34:31;16.00;99.90
19224;DHT22;9746;47.180;9.776;2023-05-02T12:36:59;16.40;99.90
19224;DHT22;9746;47.180;9.776;2023-05-02T12:39:37;16.80;99.90
19224;DHT22;9746;47.180;9.776;2023-05-02T12:44:42;18.80;99.90
19224;DHT22;9746;47.180;9.776;2023-05-02T12:48:00;20.10;99.90
19224;DHT22;9746;47.180;9.776;2023-05-02T12:50:38;21.30;99.90
19224;DHT22;9746;47.180;9.776;2023-05-02T12:53:06;22.10;99.90
19224;DHT22;9746;47.180;9.776;2023-05-02T12:55:34;22.90;99.90
19224;DHT22;9746;47.180;9.776;2023-05-02T13:01:27;23.40;99.90
19224;DHT22;9746;47.180;9.776;2023-05-02T13:04:05;22.90;99.90
19224;DHT22;9746;47.180;9.776;2023-05-02T13:06:35;22.30;99.90
19224;DHT22;9746;47.180;9.776;2023-05-02T13:09:11;21.60;99.90
19224;DHT22;9746;47.180;9.776;2023-05-02T13:11:38;21.30;99.90
19224;DHT22;9746;47.180;9.776;2023-05-02T13:14:08;20.90;99.90
19224;DHT22;9746;47.180;9.776;2023-05-02T13:16:37;20.50;99.90
19224;DHT22;9746;47.180;9.776;2023-05-02T13:19:05;20.10;99.90
19224;DHT22;9746;47.180;9.776;2023-05-02T13:21:33;19.80;99.90
19224;DHT22;9746;47.180;9.776;2023-05-02T13:24:23;19.70;99.90
19224;DHT22;9746;47.180;9.776;2023-05-02T13:26:50;19.60;99.90
19224;DHT22;9746;47.180;9.776;2023-05-02T13:29:22;19.50;99.90
19224;DHT22;9746;47.180;9.776;2023-05-02T13:31:51;19.40;99.90
19224;DHT22;9746;47.180;9.776;2023-05-02T13:34:38;19.40;99.90
19224;DHT22;9746;47.180;9.776;2023-05-02T13:37:05;19.40;99.90
19224;DHT22;9746;47.180;9.776;2023-05-02T13:39:34;20.30;99.90
19224;DHT22;9746;47.180;9.776;2023-05-02T13:42:02;21.20;99.90
19224;DHT22;9746;47.180;9.776;2023-05-02T13:44:32;22.70;99.90
19224;DHT22;9746;47.180;9.776;2023-05-02T13:47:01;23.70;99.90
19224;DHT22;9746;47.180;9.776;2023-05-02T13:49:40;25.20;99.90
19224;DHT22;9746;47.180;9.776;2023-05-02T13:52:08;26.80;99.90
19224;DHT22;9746;47.180;9.776;2023-05-02T13:54:38;26.70;99.90
19224;DHT22;9746;47.180;9.776;2023-05-02T13:57:06;26.20;99.90
19224;DHT22;9746;47.180;9.776;2023-05-02T13:59:41;26.20;99.90
19224;DHT22;9746;47.180;9.776;2023-05-02T14:02:10;25.80;99.90
19224;DHT22;9746;47.180;9.776;2023-05-02T14:04:39;26.20;99.90
19224;DHT22;9746;47.180;9.776;2023-05-02T14:07:06;27.40;99.90
19224;DHT22;9746;47.180;9.776;2023-05-02T14:09:59;27.40;99.90
19224;DHT22;9746;47.180;9.776;2023-05-02T14:12:26;27.00;99.90
19224;DHT22;9746;47.180;9.776;2023-05-02T14:14:55;27.10;99.90
19224;DHT22;9746;47.180;9.776;2023-05-02T14:17:24;27.60;99.90
19224;DHT22;9746;47.180;9.776;2023-05-02T14:19:57;29.00;99.90
19224;DHT22;9746;47.180;9.776;2023-05-02T14:22:25;30.20;99.90
19224;DHT22;9746;47.180;9.776;2023-05-02T14:24:53;30.60;99.90
19224;DHT22;9746;47.180;9.776;2023-05-02T14:27:23;30.10;99.90
19224;DHT22;9746;47.180;9.776;2023-05-02T14:29:52;28.60;99.90
19224;DHT22;9746;47.180;9.776;2023-05-02T14:32:20;26.90;99.90
19224;DHT22;9746;47.180;9.776;2023-05-02T14:34:51;26.00;99.90
19224;DHT22;9746;47.180;9.776;2023-05-02T14:37:18;25.20;99.90
19224;DHT22;9746;47.180;9.776;2023-05-02T14:39:45;24.50;99.90
19224;DHT22;9746;47.180;9.776;2023-05-02T14:42:17;23.70;99.90
19224;DHT22;9746;47.180;9.776;2023-05-02T14:44:52;22.60;99.90
19224;DHT22;9746;47.180;9.776;2023-05-02T14:47:19;21.70;99.90
19224;DHT22;9746;47.180;9.776;2023-05-02T14:49:53;20.90;99.90
19224;DHT22;9746;47.180;9.776;2023-05-02T14:52:21;20.30;99.90
19224;DHT22;9746;47.180;9.776;2023-05-02T14:54:58;19.90;99.90
19224;DHT22;9746;47.180;9.776;2023-05-02T14:57:26;19.40;99.90
19224;DHT22;9746;47.180;9.776;2023-05-02T14:59:57;18.90;99.90
19224;DHT22;9746;47.180;9.776;2023-05-02T15:02:24;18.40;99.90
19224;DHT22;9746;47.180;9.776;2023-05-02T15:05:18;17.70;99.90
19224;DHT22;9746;47.180;9.776;2023-05-02T15:07:45;17.10;99.90
19224;DHT22;9746;47.180;9.776;2023-05-02T15:10:42;16.70;99.90
19224;DHT22;9746;47.180;9.776;2023-05-02T15:13:09;16.50;99.90
19224;DHT22;9746;47.180;9.776;2023-05-02T15:15:53;16.10;99.90
19224;DHT22;9746;47.180;9.776;2023-05-02T15:18:22;15.90;99.90
19224;DHT22;9746;47.180;9.776;2023-05-02T15:20:52;15.70;99.90
19224;DHT22;9746;47.180;9.776;2023-05-02T15:23:19;15.60;99.90
19224;DHT22;9746;47.180;9.776;2023-05-02T15:25:47;15.60;99.90
19224;DHT22;9746;47.180;9.776;2023-05-02T15:28:14;15.60;99.90
19224;DHT22;9746;47.180;9.776;2023-05-02T15:30:42;15.50;99.90
19224;DHT22;9746;47.180;9.776;2023-05-02T15:33:09;15.50;99.90
19224;DHT22;9746;47.180;9.776;2023-05-02T15:35:36;15.40;99.90
19224;DHT22;9746;47.180;9.776;2023-05-02T15:38:05;15.40;99.90
19224;DHT22;9746;47.180;9.776;2023-05-02T15:41:04;15.30;99.90
19224;DHT22;9746;47.180;9.776;2023-05-02T15:43:33;15.00;99.90
19224;DHT22;9746;47.180;9.776;2023-05-02T15:46:01;14.80;99.90
19224;DHT22;9746;47.180;9.776;2023-05-02T15:48:29;14.70;99.90
19224;DHT22;9746;47.180;9.776;2023-05-02T15:50:58;14.70;99.90
19224;DHT22;9746;47.180;9.776;2023-05-02T15:53:27;14.70;99.90
19224;DHT22;9746;47.180;9.776;2023-05-02T15:55:55;14.70;99.90
19224;DHT22;9746;47.180;9.776;2023-05-02T15:58:23;14.60;99.90
19224;DHT22;9746;47.180;9.776;2023-05-02T16:01:07;14.60;99.90
19224;DHT22;9746;47.180;9.776;2023-05-02T16:03:37;14.60;99.90
19224;DHT22;9746;47.180;9.776;2023-05-02T16:06:05;14.50;99.90
19224;DHT22;9746;47.180;9.776;2023-05-02T16:08:34;14.50;99.90
19224;DHT22;9746;47.180;9.776;2023-05-02T16:14:23;14.50;99.90
19224;DHT22;9746;47.180;9.776;2023-05-02T16:17:27;14.40;99.90
19224;DHT22;9746;47.180;9.776;2023-05-02T16:20:05;14.40;99.90
19224;DHT22;9746;47.180;9.776;2023-05-02T16:22:33;14.30;99.90
19224;DHT22;9746;47.180;9.776;2023-05-02T16:27:50;14.20;99.90
19224;DHT22;9746;47.180;9.776;2023-05-02T16:30:36;14.00;99.90
19224;DHT22;9746;47.180;9.776;2023-05-02T16:33:04;13.80;99.90
19224;DHT22;9746;47.180;9.776;2023-05-02T16:38:40;13.60;99.90
19224;DHT22;9746;47.180;9.776;2023-05-02T16:41:09;13.60;99.90
19224;DHT22;9746;47.180;9.776;2023-05-02T16:43:38;13.60;99.90
19224;DHT22;9746;47.180;9.776;2023-05-02T16:46:07;13.60;99.90
19224;DHT22;9746;47.180;9.776;2023-05-02T16:48:35;13.70;99.90
19224;DHT22;9746;47.180;9.776;2023-05-02T16:51:37;13.80;99.90
19224;DHT22;9746;47.180;9.776;2023-05-02T16:54:04;13.80;99.90
19224;DHT22;9746;47.180;9.776;2023-05-02T16:56:32;13.90;99.90
19224;DHT22;9746;47.180;9.776;2023-05-02T16:59:01;14.00;99.90
19224;DHT22;9746;47.180;9.776;2023-05-02T17:01:29;14.10;99.90
19224;DHT22;9746;47.180;9.776;2023-05-02T17:03:56;14.20;99.90
19224;DHT22;9746;47.180;9.776;2023-05-02T17:09:47;14.30;99.90
19224;DHT22;9746;47.180;9.776;2023-05-02T17:12:15;14.40;99.90
19224;DHT22;9746;47.180;9.776;2023-05-02T17:14:50;14.50;99.90
19224;DHT22;9746;47.180;9.776;2023-05-02T17:17:18;14.60;99.90
19224;DHT22;9746;47.180;9.776;2023-05-02T17:19:48;14.60;99.90
19224;DHT22;9746;47.180;9.776;2023-05-02T17:22:15;14.70;99.90
19224;DHT22;9746;47.180;9.776;2023-05-02T17:24:44;14.70;99.90
19224;DHT22;9746;47.180;9.776;2023-05-02T17:27:14;14.70;99.90
19224;DHT22;9746;47.180;9.776;2023-05-02T17:30:05;14.70;99.90
19224;DHT22;9746;47.180;9.776;2023-05-02T17:32:33;14.70;99.90
19224;DHT22;9746;47.180;9.776;2023-05-02T17:35:05;14.70;99.90
19224;DHT22;9746;47.180;9.776;2023-05-02T17:37:32;14.60;99.90
19224;DHT22;9746;47.180;9.776;2023-05-02T17:43:19;14.40;99.90
19224;DHT22;9746;47.180;9.776;2023-05-02T17:45:49;14.20;99.90
19224;DHT22;9746;47.180;9.776;2023-05-02T17:48:16;14.10;99.90
19224;DHT22;9746;47.180;9.776;2023-05-02T17:50:51;13.90;99.90
19224;DHT22;9746;47.180;9.776;2023-05-02T17:53:20;13.70;99.90
19224;DHT22;9746;47.180;9.776;2023-05-02T17:55:54;13.50;99.90
19224;DHT22;9746;47.180;9.776;2023-05-02T17:58:22;13.40;99.90
19224;DHT22;9746;47.180;9.776;2023-05-02T18:00:52;13.40;99.90
19224;DHT22;9746;47.180;9.776;2023-05-02T18:03:20;13.30;99.90
19224;DHT22;9746;47.180;9.776;2023-05-02T18:05:57;13.30;99.90
19224;DHT22;9746;47.180;9.776;2023-05-02T18:08:29;13.30;99.90
19224;DHT22;9746;47.180;9.776;2023-05-02T18:14:06;13.20;99.90
19224;DHT22;9746;47.180;9.776;2023-05-02T18:16:35;13.00;99.90
19224;DHT22;9746;47.180;9.776;2023-05-02T18:19:04;12.90;99.90
19224;DHT22;9746;47.180;9.776;2023-05-02T18:24:54;12.80;99.90
19224;DHT22;9746;47.180;9.776;2023-05-02T18:27:21;12.70;99.90
19224;DHT22;9746;47.180;9.776;2023-05-02T18:30:17;12.70;99.90
19224;DHT22;9746;47.180;9.776;2023-05-02T18:32:53;12.60;99.90
19224;DHT22;9746;47.180;9.776;2023-05-02T18:35:28;12.50;99.90
19224;DHT22;9746;47.180;9.776;2023-05-02T18:38:09;12.40;99.90
19224;DHT22;9746;47.180;9.776;2023-05-02T18:40:50;12.30;99.90
19224;DHT22;9746;47.180;9.776;2023-05-02T18:43:34;12.30;99.90
19224;DHT22;9746;47.180;9.776;2023-05-02T18:46:01;12.10;99.90
19224;DHT22;9746;47.180;9.776;2023-05-02T18:48:31;12.10;99.90
19224;DHT22;9746;47.180;9.776;2023-05-02T18:50:59;12.10;99.90
19224;DHT22;9746;47.180;9.776;2023-05-02T18:53:28;12.00;99.90
19224;DHT22;9746;47.180;9.776;2023-05-02T18:55:58;12.00;99.90
19224;DHT22;9746;47.180;9.776;2023-05-02T18:58:27;11.90;99.90
19224;DHT22;9746;47.180;9.776;2023-05-02T19:04:04;11.80;99.90
19224;DHT22;9746;47.180;9.776;2023-05-02T19:06:43;11.80;99.90
19224;DHT22;9746;47.180;9.776;2023-05-02T19:09:12;11.80;99.90
19224;DHT22;9746;47.180;9.776;2023-05-02T19:11:47;11.80;99.90
19224;DHT22;9746;47.180;9.776;2023-05-02T19:14:15;11.70;99.90
